Time;durP1;ratioP1;P1;durP2;ratioP2;P2;SDS_P1;SDS_P2;PMS_P1;PMS_P2;Temp;Humidity;BMP_temperature;BMP_pressure;BME280_temperature;BME280_humidity;BME280_pressure;Samples;Min_cycle;Max_cycle;Signal;HPM_P1;HPM_P2
2022/10/26 00:00:03;;;;;;;13.52;8.52;;;11.60;80.20;;;;;;5038354;28;20045;-75
2022/10/26 00:02:29;;;;;;;21.17;8.23;;;11.60;80.20;;;;;;5031488;28;20064;-75
2022/10/26 00:04:55;;;;;;;8.38;6.75;;;11.50;80.30;;;;;;5034432;28;20037;-75
2022/10/26 00:07:20;;;;;;;11.02;7.68;;;11.50;80.40;;;;;;5016348;28;20041;-75
2022/10/26 00:09:46;;;;;;;8.43;5.47;;;11.50;80.50;;;;;;5020487;28;20053;-75
2022/10/26 00:12:12;;;;;;;10.10;7.32;;;11.50;80.60;;;;;;5031275;28;20496;-75
2022/10/26 00:14:37;;;;;;;13.23;7.80;;;11.50;80.60;;;;;;5038819;28;20045;-75
2022/10/26 00:17:03;;;;;;;15.43;8.10;;;11.50;81.00;;;;;;5045477;28;20042;-75
2022/10/26 00:19:32;;;;;;;11.98;8.40;;;11.50;80.50;;;;;;5033688;28;20049;-74
2022/10/26 00:21:57;;;;;;;11.95;8.02;;;11.50;80.40;;;;;;5031558;28;20603;-74
2022/10/26 00:24:23;;;;;;;12.75;8.48;;;11.50;80.20;;;;;;5035920;28;20089;-76
2022/10/26 00:26:49;;;;;;;12.80;7.80;;;11.50;80.20;;;;;;5042819;28;20052;-76
2022/10/26 00:29:14;;;;;;;10.75;8.35;;;11.50;80.10;;;;;;5015341;28;20048;-76
2022/10/26 00:31:40;;;;;;;12.23;7.95;;;11.50;80.10;;;;;;5015776;28;20033;-77
2022/10/26 00:34:06;;;;;;;10.95;8.82;;;11.50;80.20;;;;;;5031708;28;20111;-76
2022/10/26 00:36:31;;;;;;;16.00;9.32;;;11.50;80.20;;;;;;5037820;28;20032;-76
2022/10/26 00:38:57;;;;;;;14.73;8.45;;;11.40;80.10;;;;;;5050346;28;20044;-76
2022/10/26 00:41:26;;;;;;;12.75;10.20;;;11.40;80.10;;;;;;5056744;28;20461;-76
2022/10/26 00:43:52;;;;;;;12.43;8.95;;;11.40;80.00;;;;;;5031571;28;20504;-74
2022/10/26 00:46:35;;;;;;;13.27;9.63;;;11.40;80.10;;;;;;5031951;28;20103;-76
2022/10/26 00:49:07;;;;;;;12.60;9.50;;;11.40;80.20;;;;;;5040741;28;20562;-76
2022/10/26 00:51:38;;;;;;;14.70;9.30;;;11.30;80.20;;;;;;5047792;28;20044;-74
2022/10/26 00:54:08;;;;;;;13.60;10.05;;;11.30;80.20;;;;;;5051642;28;20037;-74
2022/10/26 00:56:34;;;;;;;11.30;9.05;;;11.30;80.30;;;;;;5040029;28;20087;-74
2022/10/26 00:59:04;;;;;;;14.27;9.35;;;11.20;80.20;;;;;;5031143;28;20064;-73
2022/10/26 01:01:32;;;;;;;13.70;10.00;;;11.30;80.30;;;;;;5039121;28;20073;-74
2022/10/26 01:03:59;;;;;;;15.85;9.93;;;11.20;80.30;;;;;;5038917;28;20042;-74
2022/10/26 01:06:29;;;;;;;12.15;9.40;;;11.20;80.20;;;;;;5042362;28;20083;-74
2022/10/26 01:08:54;;;;;;;12.68;9.23;;;11.20;80.30;;;;;;5048593;28;20041;-74
2022/10/26 01:11:20;;;;;;;12.93;10.35;;;11.20;80.40;;;;;;5041063;28;20506;-74
2022/10/26 01:13:48;;;;;;;15.43;9.70;;;11.10;80.70;;;;;;5033388;28;20524;-74
2022/10/26 01:16:32;;;;;;;11.73;9.20;;;11.10;80.30;;;;;;5031339;28;20044;-76
2022/10/26 01:19:24;;;;;;;11.00;7.60;;;11.20;80.40;;;;;;5047666;28;20042;-76
2022/10/26 01:22:01;;;;;;;8.35;5.72;;;11.10;80.40;;;;;;5040152;28;20038;-77
2022/10/26 01:24:52;;;;;;;9.80;8.15;;;11.10;80.60;;;;;;5035086;28;20041;-74
2022/10/26 01:27:24;;;;;;;11.73;7.68;;;11.10;80.70;;;;;;5029464;28;20037;-74
2022/10/26 01:30:18;;;;;;;11.38;7.97;;;11.10;80.70;;;;;;5034489;28;20044;-74
2022/10/26 01:33:03;;;;;;;12.18;9.02;;;11.10;80.70;;;;;;5036414;28;20037;-76
2022/10/26 01:35:37;;;;;;;13.05;9.10;;;11.20;80.70;;;;;;5051143;28;20469;-76
2022/10/26 01:38:09;;;;;;;12.57;9.52;;;11.10;80.60;;;;;;5025853;28;20384;-76
2022/10/26 01:40:50;;;;;;;10.65;8.85;;;11.10;80.50;;;;;;5062726;28;20037;-76
2022/10/26 01:43:18;;;;;;;11.32;9.52;;;11.10;80.40;;;;;;5051197;28;20049;-77
2022/10/26 01:45:46;;;;;;;10.82;8.38;;;11.10;80.30;;;;;;5046374;28;20041;-76
2022/10/26 01:48:16;;;;;;;15.45;9.57;;;11.10;80.40;;;;;;5018334;28;20041;-76
2022/10/26 01:50:44;;;;;;;12.57;9.38;;;11.10;80.40;;;;;;5037510;28;20049;-76
2022/10/26 01:53:14;;;;;;;13.65;10.88;;;11.10;80.40;;;;;;5054580;28;20451;-76
2022/10/26 01:55:49;;;;;;;13.40;9.88;;;11.10;80.40;;;;;;5054120;28;20080;-76
2022/10/26 01:59:03;;;;;;;14.30;10.57;;;11.10;80.50;;;;;;5015003;28;20416;-76
2022/10/26 02:01:41;;;;;;;11.85;9.23;;;11.10;80.30;;;;;;5011180;28;20509;-77
2022/10/26 02:04:36;;;;;;;14.32;10.27;;;11.00;80.40;;;;;;5034582;28;20052;-77
2022/10/26 02:07:26;;;;;;;13.88;9.98;;;11.00;80.40;;;;;;5038405;28;20076;-77
2022/10/26 02:10:09;;;;;;;14.25;11.20;;;11.00;80.40;;;;;;5033156;28;20045;-76
2022/10/26 02:13:12;;;;;;;15.25;10.80;;;11.00;80.40;;;;;;5049497;28;20119;-77
2022/10/26 02:15:37;;;;;;;13.18;10.57;;;10.90;80.20;;;;;;5036169;28;20052;-76
2022/10/26 02:18:20;;;;;;;14.90;11.10;;;10.90;80.20;;;;;;5053502;28;20045;-76
2022/10/26 02:20:49;;;;;;;17.20;13.13;;;10.90;80.20;;;;;;5057174;28;20069;-77
2022/10/26 02:23:16;;;;;;;21.27;17.05;;;10.80;80.10;;;;;;5070704;28;20045;-74
2022/10/26 02:25:50;;;;;;;25.15;17.55;;;10.80;80.10;;;;;;5034959;28;20053;-74
2022/10/26 02:28:24;;;;;;;23.87;17.93;;;10.80;80.20;;;;;;5034403;28;20091;-73
2022/10/26 02:30:53;;;;;;;24.65;18.73;;;10.70;80.20;;;;;;5033597;28;20316;-74
2022/10/26 02:33:19;;;;;;;21.77;19.30;;;10.70;80.30;;;;;;5037211;28;20507;-74
2022/10/26 02:35:49;;;;;;;23.23;19.13;;;10.60;80.30;;;;;;5034546;28;20049;-74
2022/10/26 02:38:17;;;;;;;29.05;20.48;;;10.60;80.40;;;;;;5035155;28;20120;-74
2022/10/26 02:40:45;;;;;;;24.02;18.20;;;10.60;80.50;;;;;;5016838;28;20037;-74
2022/10/26 02:43:13;;;;;;;21.77;17.35;;;10.60;80.50;;;;;;5048875;28;20041;-73
2022/10/26 02:45:46;;;;;;;20.98;16.80;;;10.50;81.00;;;;;;5034355;28;20045;-74
2022/10/26 02:48:14;;;;;;;21.27;16.17;;;10.50;80.80;;;;;;5038128;28;20099;-74
2022/10/26 02:51:33;;;;;;;22.83;16.90;;;10.50;80.80;;;;;;5032824;28;20041;-74
2022/10/26 02:54:23;;;;;;;18.58;15.63;;;10.50;80.80;;;;;;4984168;28;20037;-73
2022/10/26 02:56:54;;;;;;;21.30;15.98;;;10.40;81.00;;;;;;5042925;28;20492;-76
2022/10/26 02:59:24;;;;;;;22.30;17.38;;;10.40;81.10;;;;;;5069879;28;20567;-76
2022/10/26 03:01:50;;;;;;;18.80;15.50;;;10.40;81.10;;;;;;5050978;28;20033;-76
2022/10/26 03:04:16;;;;;;;22.98;16.42;;;10.40;81.30;;;;;;5018661;28;20037;-74
2022/10/26 03:06:50;;;;;;;22.45;16.42;;;10.40;81.30;;;;;;5041461;28;20052;-73
2022/10/26 03:09:16;;;;;;;20.50;16.38;;;10.40;81.40;;;;;;5048382;28;20419;-73
2022/10/26 03:11:41;;;;;;;23.10;15.90;;;10.40;81.40;;;;;;5016388;28;20130;-73
2022/10/26 03:14:07;;;;;;;20.65;15.02;;;10.30;81.50;;;;;;5032357;28;20060;-73
2022/10/26 03:16:32;;;;;;;18.50;15.18;;;10.30;81.60;;;;;;5023097;28;20099;-73
2022/10/26 03:18:58;;;;;;;22.60;16.17;;;10.40;81.80;;;;;;5032945;28;20038;-73
2022/10/26 03:21:24;;;;;;;20.95;15.95;;;10.40;81.80;;;;;;5032599;28;20051;-76
2022/10/26 03:23:50;;;;;;;22.10;14.65;;;10.40;81.90;;;;;;5034232;28;20044;-76
2022/10/26 03:26:16;;;;;;;18.88;14.85;;;10.40;82.00;;;;;;5032599;28;20038;-77
2022/10/26 03:28:42;;;;;;;22.13;15.60;;;10.40;82.10;;;;;;5016404;28;20048;-77
2022/10/26 03:31:07;;;;;;;20.60;16.10;;;10.40;82.20;;;;;;5032772;28;20037;-77
2022/10/26 03:33:33;;;;;;;21.50;15.68;;;10.40;82.30;;;;;;5016056;28;20042;-77
2022/10/26 03:35:59;;;;;;;21.23;15.50;;;10.40;82.30;;;;;;5016490;28;20049;-77
2022/10/26 03:38:24;;;;;;;17.58;13.68;;;10.40;82.40;;;;;;5032710;28;20042;-76
2022/10/26 03:40:50;;;;;;;23.58;14.82;;;10.40;82.50;;;;;;5039445;28;20037;-73
2022/10/26 03:43:16;;;;;;;20.33;14.57;;;10.40;82.50;;;;;;5049696;28;20112;-73
2022/10/26 03:45:42;;;;;;;20.05;14.20;;;10.40;82.50;;;;;;5069064;28;20109;-73
2022/10/26 03:48:07;;;;;;;19.13;13.70;;;10.40;82.60;;;;;;5032773;28;20370;-73
2022/10/26 03:50:33;;;;;;;20.55;14.25;;;10.40;82.60;;;;;;5031959;28;20132;-73
2022/10/26 03:52:59;;;;;;;17.35;13.70;;;10.40;82.60;;;;;;5044603;28;20485;-73
2022/10/26 03:55:24;;;;;;;20.77;14.65;;;10.40;82.70;;;;;;5045299;28;20477;-73
2022/10/26 03:57:50;;;;;;;20.90;13.73;;;10.40;82.70;;;;;;5063571;28;20037;-76
2022/10/26 04:00:17;;;;;;;19.25;14.90;;;10.40;82.70;;;;;;5052304;28;20514;-76
2022/10/26 04:02:48;;;;;;;19.52;14.05;;;10.50;82.80;;;;;;5059728;28;20073;-74
2022/10/26 04:05:15;;;;;;;20.73;15.07;;;10.40;82.80;;;;;;5016286;28;20396;-73
2022/10/26 04:07:41;;;;;;;20.77;13.98;;;10.40;82.80;;;;;;5038556;28;20045;-73
2022/10/26 04:10:07;;;;;;;18.95;14.23;;;10.50;82.90;;;;;;5031784;28;20054;-73
2022/10/26 04:12:38;;;;;;;19.10;14.82;;;10.50;82.90;;;;;;5039256;28;20084;-73
2022/10/26 04:15:05;;;;;;;22.95;14.80;;;10.50;83.00;;;;;;5051376;28;20534;-73
2022/10/26 04:17:31;;;;;;;17.83;14.00;;;10.50;83.00;;;;;;5023757;28;20033;-73
2022/10/26 04:19:57;;;;;;;20.23;14.95;;;10.50;83.00;;;;;;5015332;28;20044;-73
2022/10/26 04:22:23;;;;;;;18.52;13.68;;;10.50;83.10;;;;;;5036424;28;20079;-76
2022/10/26 04:24:48;;;;;;;20.15;13.90;;;10.50;83.10;;;;;;5052132;28;20103;-76
2022/10/26 04:27:14;;;;;;;20.70;13.70;;;10.60;83.20;;;;;;5050978;28;20489;-76
2022/10/26 04:29:40;;;;;;;19.40;14.38;;;10.60;83.30;;;;;;5031990;28;20037;-77
2022/10/26 04:32:06;;;;;;;21.90;15.02;;;10.60;83.30;;;;;;5017013;28;20044;-77
2022/10/26 04:34:32;;;;;;;19.80;13.88;;;10.60;83.30;;;;;;5036262;28;20493;-76
2022/10/26 04:36:58;;;;;;;20.90;13.73;;;10.70;83.40;;;;;;5044557;28;20040;-76
2022/10/26 04:39:24;;;;;;;16.52;13.82;;;10.70;83.40;;;;;;5022824;28;20041;-76
2022/10/26 04:41:50;;;;;;;19.50;13.93;;;10.70;83.40;;;;;;5056236;28;20120;-76
2022/10/26 04:44:15;;;;;;;21.67;14.20;;;10.70;83.40;;;;;;5072355;28;20545;-76
2022/10/26 04:46:41;;;;;;;18.50;13.20;;;10.70;83.30;;;;;;5059894;28;20041;-73
2022/10/26 04:49:07;;;;;;;18.70;13.88;;;10.80;83.40;;;;;;5046897;28;20483;-73
2022/10/26 04:51:32;;;;;;;17.67;14.25;;;10.80;83.40;;;;;;5035290;28;20120;-73
2022/10/26 04:53:58;;;;;;;18.67;12.48;;;10.80;83.70;;;;;;5008532;28;20037;-73
2022/10/26 04:56:24;;;;;;;17.20;13.70;;;10.80;83.20;;;;;;5038720;28;20033;-73
2022/10/26 04:58:53;;;;;;;20.08;13.43;;;10.80;83.20;;;;;;5032714;28;20037;-73
2022/10/26 05:01:18;;;;;;;18.88;14.23;;;10.80;83.20;;;;;;5049376;28;20033;-73
2022/10/26 05:03:47;;;;;;;17.27;13.25;;;10.80;83.10;;;;;;5028405;28;20052;-73
2022/10/26 05:06:13;;;;;;;17.50;14.10;;;10.80;83.10;;;;;;5063358;28;20042;-73
2022/10/26 05:08:38;;;;;;;22.27;14.05;;;10.90;83.20;;;;;;5040875;28;20044;-73
2022/10/26 05:11:04;;;;;;;18.20;13.18;;;10.90;83.20;;;;;;5018465;28;20041;-73
2022/10/26 05:13:30;;;;;;;20.58;13.73;;;11.00;83.20;;;;;;5024123;28;20041;-73
2022/10/26 05:15:55;;;;;;;18.92;13.38;;;10.90;83.20;;;;;;5037966;28;20380;-73
2022/10/26 05:18:21;;;;;;;16.95;13.07;;;10.90;83.20;;;;;;5035316;28;20116;-73
2022/10/26 05:20:48;;;;;;;16.42;13.02;;;10.90;83.20;;;;;;5018314;28;20056;-73
2022/10/26 05:23:17;;;;;;;18.58;13.02;;;10.90;83.20;;;;;;5016695;28;20044;-73
2022/10/26 05:25:43;;;;;;;15.65;12.57;;;10.90;83.20;;;;;;5071585;28;20049;-73
2022/10/26 05:28:12;;;;;;;16.58;13.20;;;11.00;83.30;;;;;;5059930;28;20098;-73
2022/10/26 05:30:38;;;;;;;17.67;13.15;;;10.90;83.20;;;;;;5035015;28;20400;-73
2022/10/26 05:33:04;;;;;;;16.40;12.32;;;11.00;83.20;;;;;;5034345;28;20069;-73
2022/10/26 05:35:31;;;;;;;19.17;11.60;;;11.00;83.20;;;;;;5053418;28;20040;-73
2022/10/26 05:37:57;;;;;;;17.63;13.23;;;11.10;83.20;;;;;;5005438;28;20120;-73
2022/10/26 05:40:23;;;;;;;18.02;12.25;;;11.10;83.20;;;;;;5027010;28;20049;-73
2022/10/26 05:42:49;;;;;;;16.00;12.85;;;11.10;83.20;;;;;;5034139;28;20053;-73
2022/10/26 05:45:17;;;;;;;16.00;11.50;;;11.10;83.10;;;;;;5050684;28;20037;-73
2022/10/26 05:47:44;;;;;;;17.65;13.52;;;11.10;83.10;;;;;;5040671;28;20061;-73
2022/10/26 05:50:11;;;;;;;17.27;12.02;;;11.10;83.10;;;;;;5049126;28;20129;-73
2022/10/26 05:52:44;;;;;;;20.50;13.77;;;11.10;83.00;;;;;;5003960;28;20045;-73
2022/10/26 05:55:13;;;;;;;19.10;12.85;;;11.20;83.10;;;;;;5033926;28;20128;-73
2022/10/26 05:57:39;;;;;;;16.08;12.18;;;11.20;83.10;;;;;;5046321;28;20051;-73
2022/10/26 06:00:20;;;;;;;18.77;11.55;;;11.20;83.00;;;;;;5041197;28;20033;-73
2022/10/26 06:03:21;;;;;;;14.85;11.55;;;11.20;83.00;;;;;;5033982;28;20087;-73
2022/10/26 06:05:54;;;;;;;14.15;10.93;;;11.30;83.00;;;;;;5066294;28;20381;-73
2022/10/26 06:08:22;;;;;;;13.98;11.60;;;11.30;83.00;;;;;;5035773;28;20046;-73
2022/10/26 06:10:48;;;;;;;15.32;11.25;;;11.30;83.00;;;;;;5036049;28;20124;-73
2022/10/26 06:13:15;;;;;;;16.30;11.30;;;11.30;82.90;;;;;;5033748;28;20046;-73
2022/10/26 06:15:56;;;;;;;16.23;10.98;;;11.30;82.90;;;;;;5049416;28;20374;-73
2022/10/26 06:18:34;;;;;;;17.23;10.77;;;11.30;83.00;;;;;;5051754;28;20065;-73
2022/10/26 06:21:26;;;;;;;16.15;11.27;;;11.30;82.80;;;;;;5064419;28;20041;-72
2022/10/26 06:24:03;;;;;;;13.70;9.60;;;11.40;82.80;;;;;;5032714;28;20045;-72
2022/10/26 06:26:37;;;;;;;14.52;10.82;;;11.40;82.80;;;;;;5019009;28;20045;-72
2022/10/26 06:29:27;;;;;;;16.50;11.10;;;11.40;82.80;;;;;;5052796;28;20517;-72
2022/10/26 06:31:53;;;;;;;15.30;10.43;;;11.40;82.70;;;;;;5053654;28;20403;-72
2022/10/26 06:34:26;;;;;;;14.85;10.10;;;11.50;82.70;;;;;;5022577;28;20037;-75
2022/10/26 06:36:52;;;;;;;12.70;11.07;;;11.50;82.60;;;;;;5048175;28;20117;-75
2022/10/26 06:39:18;;;;;;;13.30;9.70;;;11.50;82.60;;;;;;5035171;28;20120;-75
2022/10/26 06:41:44;;;;;;;12.40;9.65;;;11.50;82.60;;;;;;5053685;28;20048;-75
2022/10/26 06:44:20;;;;;;;14.90;10.20;;;11.60;82.50;;;;;;5054022;28;20395;-75
2022/10/26 06:46:51;;;;;;;12.95;9.77;;;11.60;82.50;;;;;;5022786;28;20037;-75
2022/10/26 06:49:28;;;;;;;17.23;9.88;;;11.60;82.40;;;;;;5029540;28;20041;-76
2022/10/26 06:52:11;;;;;;;15.95;9.68;;;11.60;82.30;;;;;;5013576;28;20042;-75
2022/10/26 06:54:52;;;;;;;14.23;9.30;;;11.60;82.30;;;;;;5033439;28;20385;-75
2022/10/26 06:57:20;;;;;;;12.27;9.38;;;11.60;82.20;;;;;;5033365;28;20076;-75
2022/10/26 06:59:52;;;;;;;13.63;9.38;;;11.70;82.20;;;;;;5035475;28;20049;-75
2022/10/26 07:02:19;;;;;;;12.45;8.60;;;11.70;82.20;;;;;;5048429;28;20115;-75
2022/10/26 07:04:45;;;;;;;15.45;8.95;;;11.70;82.20;;;;;;5047045;28;20484;-75
2022/10/26 07:07:18;;;;;;;13.00;8.77;;;11.70;82.10;;;;;;5045458;28;20041;-72
2022/10/26 07:09:44;;;;;;;13.93;8.80;;;11.80;82.20;;;;;;5048357;28;20041;-73
2022/10/26 07:12:10;;;;;;;15.27;8.75;;;11.80;82.60;;;;;;5032386;28;20079;-72
2022/10/26 07:14:35;;;;;;;12.43;8.30;;;11.80;82.20;;;;;;5032233;28;20060;-72
2022/10/26 07:17:01;;;;;;;11.63;8.13;;;11.90;82.30;;;;;;5047974;28;20047;-72
2022/10/26 07:19:27;;;;;;;13.00;8.30;;;11.90;82.20;;;;;;5048665;28;20488;-73
2022/10/26 07:21:55;;;;;;;13.40;8.80;;;11.90;82.20;;;;;;5048221;28;20084;-72
2022/10/26 07:24:22;;;;;;;12.38;8.80;;;11.90;82.10;;;;;;5048875;28;20045;-72
2022/10/26 07:26:47;;;;;;;12.98;8.20;;;12.00;82.20;;;;;;5048279;28;20037;-72
2022/10/26 07:29:15;;;;;;;10.07;8.05;;;12.00;82.10;;;;;;5032211;28;20357;-72
2022/10/26 07:31:40;;;;;;;15.20;8.60;;;12.00;82.00;;;;;;5031808;28;20024;-72
2022/10/26 07:34:06;;;;;;;11.40;8.40;;;12.00;82.00;;;;;;5048386;28;20408;-72
2022/10/26 07:36:35;;;;;;;11.80;7.70;;;12.10;82.00;;;;;;5048022;28;20040;-72
2022/10/26 07:39:02;;;;;;;11.55;7.72;;;12.10;82.00;;;;;;5047393;28;20126;-72
2022/10/26 07:41:27;;;;;;;12.73;7.38;;;12.20;81.90;;;;;;5048119;28;20044;-72
2022/10/26 07:43:53;;;;;;;12.50;8.25;;;12.10;81.80;;;;;;5048078;28;20049;-75
2022/10/26 07:46:19;;;;;;;10.57;7.65;;;12.20;81.80;;;;;;5047415;28;20037;-75
2022/10/26 07:48:44;;;;;;;14.05;8.13;;;12.20;81.90;;;;;;5045984;28;20043;-75
2022/10/26 07:51:10;;;;;;;10.80;6.88;;;12.30;81.90;;;;;;5029994;28;20451;-75
2022/10/26 07:53:36;;;;;;;10.23;7.95;;;12.30;81.80;;;;;;5045026;28;20091;-75
2022/10/26 07:56:02;;;;;;;11.02;7.10;;;12.40;81.80;;;;;;5046998;28;20045;-76
2022/10/26 07:58:27;;;;;;;10.63;7.18;;;12.40;81.70;;;;;;5047016;28;20395;-76
2022/10/26 08:00:54;;;;;;;12.35;6.72;;;12.40;81.70;;;;;;5046758;28;20452;-72
2022/10/26 08:03:20;;;;;;;12.27;7.13;;;12.50;81.60;;;;;;5046971;28;20099;-72
2022/10/26 08:05:54;;;;;;;9.80;6.85;;;12.50;81.60;;;;;;5046976;28;20083;-71
2022/10/26 08:08:20;;;;;;;10.80;7.47;;;12.50;81.50;;;;;;5047547;28;20041;-72
2022/10/26 08:10:47;;;;;;;11.10;7.30;;;12.50;81.40;;;;;;5047914;28;20460;-72
2022/10/26 08:13:13;;;;;;;10.68;6.88;;;12.60;81.40;;;;;;5046895;28;20531;-75
2022/10/26 08:15:39;;;;;;;9.68;6.60;;;12.60;81.30;;;;;;5047611;28;20083;-76
2022/10/26 08:18:05;;;;;;;10.13;6.03;;;12.70;81.30;;;;;;5046712;28;20072;-76
2022/10/26 08:20:30;;;;;;;12.07;6.80;;;12.70;81.60;;;;;;5015154;28;20037;-72
2022/10/26 08:22:57;;;;;;;11.07;6.40;;;12.80;81.90;;;;;;5031114;28;20033;-72
2022/10/26 08:25:23;;;;;;;11.48;6.10;;;12.80;81.90;;;;;;5048807;28;20045;-72
2022/10/26 08:27:49;;;;;;;11.23;6.07;;;13.00;82.00;;;;;;5041718;28;20077;-72
2022/10/26 08:30:14;;;;;;;10.43;6.00;;;13.10;82.00;;;;;;5028849;28;20124;-73
2022/10/26 08:32:43;;;;;;;12.75;6.50;;;13.20;81.90;;;;;;5016292;28;20033;-72
2022/10/26 08:35:11;;;;;;;7.75;5.63;;;13.40;81.70;;;;;;5031462;28;20389;-76
2022/10/26 08:37:36;;;;;;;8.63;5.38;;;13.60;81.80;;;;;;5015312;28;20046;-76
2022/10/26 08:40:03;;;;;;;9.20;5.22;;;13.70;81.20;;;;;;5040936;28;20396;-76
2022/10/26 08:42:39;;;;;;;8.50;5.32;;;13.90;80.60;;;;;;5045724;28;20044;-76
2022/10/26 08:45:14;;;;;;;7.35;5.00;;;14.00;80.20;;;;;;5045509;28;20033;-76
2022/10/26 08:47:45;;;;;;;7.50;5.30;;;14.20;79.80;;;;;;5045628;28;20048;-77
2022/10/26 08:50:23;;;;;;;8.85;4.88;;;14.40;79.00;;;;;;5045916;28;20039;-76
2022/10/26 08:53:02;;;;;;;8.25;5.00;;;14.50;78.20;;;;;;5045964;28;20481;-76
2022/10/26 08:55:37;;;;;;;9.02;4.78;;;14.60;77.90;;;;;;5030859;28;20036;-76
2022/10/26 08:58:07;;;;;;;10.02;5.68;;;14.80;77.50;;;;;;5046377;28;20053;-76
2022/10/26 09:00:33;;;;;;;6.68;4.50;;;14.90;77.30;;;;;;5045107;28;20041;-76
2022/10/26 09:02:59;;;;;;;9.57;4.88;;;15.00;76.90;;;;;;5049329;28;20492;-76
2022/10/26 09:05:48;;;;;;;8.98;4.72;;;15.10;76.50;;;;;;5045987;28;20048;-76
2022/10/26 09:08:39;;;;;;;9.45;5.32;;;15.30;76.00;;;;;;5047605;28;20438;-76
2022/10/26 09:11:10;;;;;;;7.40;4.40;;;15.40;76.30;;;;;;5031264;28;20549;-72
2022/10/26 09:14:12;;;;;;;10.82;4.47;;;15.50;75.70;;;;;;5046117;28;20048;-73
2022/10/26 09:16:51;;;;;;;6.90;4.47;;;15.60;75.20;;;;;;5045934;28;20474;-73
2022/10/26 09:19:41;;;;;;;6.97;4.28;;;15.70;75.20;;;;;;5033946;28;20392;-73
2022/10/26 09:22:13;;;;;;;7.35;4.78;;;15.80;75.30;;;;;;5036555;28;20484;-73
2022/10/26 09:24:54;;;;;;;17.83;8.00;;;15.80;75.10;;;;;;5051440;28;20075;-73
2022/10/26 09:27:27;;;;;;;6.32;4.35;;;15.90;75.00;;;;;;5041163;28;20060;-75
2022/10/26 09:29:59;;;;;;;9.85;4.15;;;16.00;74.60;;;;;;5055145;28;20495;-79
2022/10/26 09:32:34;;;;;;;7.03;4.65;;;16.00;74.20;;;;;;5034148;28;20041;-79
2022/10/26 09:35:17;;;;;;;7.10;3.70;;;16.10;74.30;;;;;;5018717;28;20076;-80
2022/10/26 09:37:48;;;;;;;8.20;4.00;;;16.20;74.10;;;;;;5035277;28;20037;-82
2022/10/26 09:40:22;;;;;;;6.20;4.10;;;16.30;74.20;;;;;;5018746;28;20621;-81
2022/10/26 09:42:57;;;;;;;5.90;3.70;;;16.30;74.20;;;;;;5019035;28;20469;-83
2022/10/26 09:45:38;;;;;;;6.63;4.10;;;16.40;74.20;;;;;;5018728;28;20618;-82
2022/10/26 09:48:11;;;;;;;6.05;3.78;;;16.50;74.00;;;;;;5018533;28;20463;-83
2022/10/26 09:50:41;;;;;;;7.28;3.63;;;16.50;74.10;;;;;;5018912;28;20041;-83
2022/10/26 09:53:06;;;;;;;7.22;3.90;;;16.60;74.10;;;;;;5027296;28;20051;-83
2022/10/26 09:55:38;;;;;;;7.45;3.67;;;16.70;73.90;;;;;;5038218;28;20128;-84
2022/10/26 09:58:09;;;;;;;6.35;4.63;;;16.90;73.80;;;;;;5054947;28;20091;-83
2022/10/26 10:00:36;;;;;;;6.25;3.58;;;16.80;73.50;;;;;;5035110;28;20041;-80
2022/10/26 10:03:15;;;;;;;7.68;3.58;;;16.90;73.20;;;;;;5050270;28;20090;-80
2022/10/26 10:05:41;;;;;;;5.85;2.90;;;17.00;73.40;;;;;;5019145;28;20056;-80
2022/10/26 10:08:15;;;;;;;5.00;2.60;;;17.10;73.10;;;;;;5001175;28;20041;-79
2022/10/26 10:11:06;;;;;;;6.10;2.88;;;17.30;72.60;;;;;;5017895;28;20077;-80
2022/10/26 10:13:37;;;;;;;8.30;3.00;;;17.40;72.30;;;;;;5042878;28;20048;-82
2022/10/26 10:16:11;;;;;;;6.47;2.80;;;17.40;71.60;;;;;;5037546;28;20037;-77
2022/10/26 10:18:39;;;;;;;6.38;3.40;;;17.50;71.40;;;;;;5054087;28;20033;-79
2022/10/26 10:21:06;;;;;;;7.40;2.70;;;17.60;71.60;;;;;;5034144;28;20045;-79
2022/10/26 10:23:35;;;;;;;6.68;2.75;;;17.70;71.30;;;;;;5050747;28;20048;-79
2022/10/26 10:26:03;;;;;;;6.68;2.95;;;17.80;71.10;;;;;;5050581;28;20077;-77
2022/10/26 10:28:30;;;;;;;5.68;2.40;;;17.90;70.50;;;;;;5055668;28;20044;-77
2022/10/26 10:31:02;;;;;;;6.35;2.40;;;18.00;69.90;;;;;;5032866;28;20054;-77
2022/10/26 10:33:41;;;;;;;7.07;2.60;;;18.10;69.50;;;;;;5024043;28;20029;-77
2022/10/26 10:36:12;;;;;;;6.93;2.83;;;18.20;69.00;;;;;;5070111;28;20048;-74
2022/10/26 10:38:40;;;;;;;7.65;3.50;;;18.20;68.80;;;;;;5050639;28;20620;-73
2022/10/26 10:41:27;;;;;;;7.95;3.33;;;18.30;69.00;;;;;;5033306;28;20106;-75
2022/10/26 10:44:06;;;;;;;7.43;2.92;;;18.30;68.90;;;;;;5036423;28;20048;-74
2022/10/26 10:46:32;;;;;;;7.75;2.78;;;18.30;68.30;;;;;;5036932;28;20461;-73
2022/10/26 10:49:16;;;;;;;7.25;3.00;;;18.40;68.10;;;;;;5060112;28;20049;-75
2022/10/26 10:51:43;;;;;;;8.93;3.25;;;18.40;68.10;;;;;;5053165;28;20056;-75
2022/10/26 10:54:31;;;;;;;8.02;2.90;;;18.30;68.30;;;;;;5042985;28;20045;-76
2022/10/26 10:57:05;;;;;;;7.15;3.35;;;18.40;68.40;;;;;;5033588;28;20037;-80
2022/10/26 10:59:53;;;;;;;6.53;2.40;;;18.40;68.10;;;;;;5045224;28;20033;-78
2022/10/26 11:02:39;;;;;;;6.95;2.78;;;18.40;68.60;;;;;;5053252;28;20041;-79
2022/10/26 11:05:14;;;;;;;7.28;2.47;;;18.40;68.70;;;;;;5052673;28;20440;-78
2022/10/26 11:08:11;;;;;;;7.32;2.60;;;18.40;69.10;;;;;;5028708;28;20033;-75
2022/10/26 11:11:11;;;;;;;7.18;2.70;;;18.40;68.60;;;;;;5024744;28;20083;-73
2022/10/26 11:14:14;;;;;;;7.15;2.72;;;18.40;68.80;;;;;;5040619;28;20397;-73
2022/10/26 11:16:54;;;;;;;5.82;2.60;;;18.50;68.90;;;;;;4993553;28;20058;-72
2022/10/26 11:19:27;;;;;;;5.97;2.72;;;18.50;68.90;;;;;;5025696;28;20052;-75
2022/10/26 11:21:55;;;;;;;5.90;2.53;;;18.50;68.90;;;;;;5032914;28;20049;-75
2022/10/26 11:24:42;;;;;;;6.68;2.75;;;18.50;68.80;;;;;;5040010;28;20602;-75
2022/10/26 11:27:22;;;;;;;8.15;3.10;;;18.60;68.70;;;;;;5045480;28;20535;-75
2022/10/26 11:30:14;;;;;;;5.60;2.95;;;18.60;68.60;;;;;;5042492;28;20045;-75
2022/10/26 11:33:04;;;;;;;6.00;2.95;;;18.60;68.70;;;;;;5052378;28;20076;-75
2022/10/26 11:35:41;;;;;;;6.82;2.78;;;18.70;68.80;;;;;;5020206;28;20037;-75
2022/10/26 11:38:20;;;;;;;7.05;3.10;;;18.70;68.90;;;;;;5032512;28;20045;-75
2022/10/26 11:41:15;;;;;;;5.95;2.83;;;18.70;68.90;;;;;;5032787;28;20041;-73
2022/10/26 11:43:47;;;;;;;6.55;2.92;;;18.70;68.70;;;;;;5031779;28;20049;-73
2022/10/26 11:46:25;;;;;;;5.45;2.72;;;18.80;68.80;;;;;;5047938;28;20045;-73
2022/10/26 11:49:18;;;;;;;4.05;2.22;;;18.80;68.90;;;;;;5052049;28;20094;-73
2022/10/26 11:52:16;;;;;;;5.80;3.10;;;18.80;69.00;;;;;;5040630;28;20056;-73
2022/10/26 11:54:59;;;;;;;6.47;2.70;;;18.90;69.30;;;;;;5051774;28;20052;-73
2022/10/26 11:57:27;;;;;;;5.88;2.63;;;18.90;69.20;;;;;;5040730;28;20041;-72
2022/10/26 12:00:03;;;;;;;6.45;2.85;;;18.90;69.20;;;;;;5032235;28;20055;-73
2022/10/26 12:02:31;;;;;;;4.93;2.63;;;18.90;69.00;;;;;;5042811;28;20120;-73
2022/10/26 12:05:06;;;;;;;5.43;2.90;;;18.90;69.20;;;;;;5068463;28;20051;-73
2022/10/26 12:07:36;;;;;;;5.07;2.58;;;19.00;69.20;;;;;;5059812;28;20057;-73
2022/10/26 12:10:06;;;;;;;6.10;2.85;;;19.00;69.10;;;;;;5068395;28;20043;-73
2022/10/26 12:12:51;;;;;;;5.40;2.53;;;19.00;69.20;;;;;;5057799;28;20048;-73
2022/10/26 12:15:51;;;;;;;6.85;3.28;;;19.00;69.40;;;;;;5031641;28;20050;-72
2022/10/26 12:18:42;;;;;;;6.53;2.83;;;19.00;69.40;;;;;;5027811;28;20095;-72
2022/10/26 12:21:09;;;;;;;7.45;3.17;;;19.00;69.20;;;;;;5040560;28;20070;-72
2022/10/26 12:23:54;;;;;;;5.88;2.83;;;19.00;68.90;;;;;;5031903;28;20060;-72
2022/10/26 12:26:23;;;;;;;5.75;2.90;;;19.00;68.70;;;;;;5051992;28;20107;-72
2022/10/26 12:29:13;;;;;;;4.40;3.60;;;19.00;68.80;;;;;;5050068;28;20113;-73
2022/10/26 12:31:38;;;;;;;7.60;3.42;;;19.00;68.60;;;;;;5042790;28;20476;-72
2022/10/26 12:34:13;;;;;;;7.28;3.25;;;19.10;68.90;;;;;;5033378;28;20112;-72
2022/10/26 12:36:55;;;;;;;9.00;3.60;;;19.10;68.70;;;;;;5031261;28;20068;-73
2022/10/26 12:39:29;;;;;;;6.07;3.20;;;19.10;68.80;;;;;;5048018;28;20499;-73
2022/10/26 12:42:04;;;;;;;8.18;4.35;;;19.10;68.90;;;;;;5031555;28;20389;-72
2022/10/26 12:44:32;;;;;;;6.72;3.45;;;19.10;68.70;;;;;;5068011;28;20120;-75
2022/10/26 12:46:57;;;;;;;9.00;4.43;;;19.00;69.40;;;;;;5051683;28;20420;-73
2022/10/26 12:50:00;;;;;;;8.00;3.90;;;19.10;69.20;;;;;;5051449;28;20095;-73
2022/10/26 12:52:47;;;;;;;9.32;3.80;;;19.10;69.00;;;;;;5050965;28;20037;-72
2022/10/26 12:55:29;;;;;;;7.55;3.90;;;19.10;68.90;;;;;;5055031;28;20097;-73
2022/10/26 12:58:13;;;;;;;7.03;3.80;;;19.10;68.80;;;;;;5055435;28;20037;-73
2022/10/26 13:00:50;;;;;;;5.35;2.90;;;19.00;68.70;;;;;;5055363;28;20041;-75